createdAt,value
2022-09-23T00:01:09.202Z,7.72
2022-09-23T00:03:38.548Z,7.66
2022-09-23T00:06:11.346Z,7.65
2022-09-23T00:08:39.316Z,7.59
2022-09-23T00:11:11.881Z,7.54
2022-09-23T00:13:40.543Z,7.48
2022-09-23T00:16:16.693Z,7.48
2022-09-23T00:18:44.299Z,7.49
2022-09-23T00:21:14.613Z,7.48
2022-09-23T00:23:43.682Z,7.45
2022-09-23T00:26:15.953Z,7.42
2022-09-23T00:28:43.965Z,7.37
2022-09-23T00:31:17.104Z,7.32
2022-09-23T00:33:44.572Z,7.30
2022-09-23T00:36:15.805Z,7.25
2022-09-23T00:38:44.083Z,7.24
2022-09-23T00:41:12.200Z,7.21
2022-09-23T00:43:53.032Z,7.20
2022-09-23T00:46:22.291Z,7.19
2022-09-23T00:48:55.761Z,7.16
2022-09-23T00:51:25.649Z,7.17
2022-09-23T00:53:53.118Z,7.18
2022-09-23T00:56:22.399Z,7.17
2022-09-23T00:58:50.608Z,7.19
2022-09-23T01:01:19.401Z,7.15
2022-09-23T01:03:47.918Z,7.10
2022-09-23T01:06:15.092Z,7.07
2022-09-23T01:08:46.166Z,7.05
2022-09-23T01:11:29.032Z,7.05
2022-09-23T01:14:14.330Z,7.02
2022-09-23T01:16:52.842Z,6.98
2022-09-23T01:19:35.153Z,6.94
2022-09-23T01:22:30.645Z,6.89
2022-09-23T01:25:19.216Z,6.82
2022-09-23T01:27:59.263Z,6.78
2022-09-23T01:30:47.976Z,6.76
2022-09-23T01:33:28.399Z,6.73
2022-09-23T01:36:24.259Z,6.75
2022-09-23T01:39:01.264Z,6.72
2022-09-23T01:41:35.489Z,6.70
2022-09-23T01:44:23.179Z,6.67
2022-09-23T01:47:14.340Z,6.64
2022-09-23T01:49:57.464Z,6.64
2022-09-23T01:52:35.545Z,6.64
2022-09-23T01:55:12.137Z,6.69
2022-09-23T01:57:48.990Z,6.72
2022-09-23T02:00:18.404Z,6.79
2022-09-23T02:02:49.791Z,6.86
2022-09-23T02:05:30.472Z,6.89
2022-09-23T02:08:06.156Z,6.89
2022-09-23T02:10:37.260Z,6.89
2022-09-23T02:13:13.961Z,6.87
2022-09-23T02:15:47.948Z,6.81
2022-09-23T02:18:21.275Z,6.80
2022-09-23T02:20:51.196Z,6.73
2022-09-23T02:23:52.047Z,6.69
2022-09-23T02:26:51.638Z,6.62
2022-09-23T02:29:33.871Z,6.52
2022-09-23T02:32:10.216Z,6.50
2022-09-23T02:34:55.677Z,6.50
2022-09-23T02:37:43.658Z,6.49
2022-09-23T02:40:13.640Z,6.56
2022-09-23T02:42:52.957Z,6.58
2022-09-23T02:45:20.098Z,6.62
2022-09-23T02:47:53.433Z,6.66
2022-09-23T02:50:22.436Z,6.68
2022-09-23T02:52:49.874Z,6.66
2022-09-23T02:55:18.790Z,6.63
2022-09-23T02:57:46.193Z,6.62
2022-09-23T03:00:13.669Z,6.63
2022-09-23T03:02:40.493Z,6.69
2022-09-23T03:05:24.254Z,6.68
2022-09-23T03:08:03.046Z,6.64
2022-09-23T03:10:48.606Z,6.56
2022-09-23T03:13:51.386Z,6.50
2022-09-23T03:16:34.690Z,6.44
2022-09-23T03:19:33.283Z,6.42
2022-09-23T03:22:09.143Z,6.38
2022-09-23T03:24:38.047Z,6.34
2022-09-23T03:27:13.921Z,6.24
2022-09-23T03:29:48.023Z,6.17
2022-09-23T03:32:17.349Z,6.10
2022-09-23T03:34:46.474Z,6.05
2022-09-23T03:37:41.046Z,6.00
2022-09-23T03:40:25.125Z,5.93
2022-09-23T03:42:54.112Z,5.88
2022-09-23T03:45:26.256Z,5.87
2022-09-23T03:47:53.412Z,5.84
2022-09-23T03:50:21.500Z,5.83
2022-09-23T03:52:50.592Z,5.78
2022-09-23T03:55:18.823Z,5.76
2022-09-23T03:57:45.975Z,5.69
2022-09-23T04:00:14.239Z,5.63
2022-09-23T04:02:41.440Z,5.60
2022-09-23T04:05:10.080Z,5.60
2022-09-23T04:07:36.877Z,5.57
2022-09-23T04:10:05.127Z,5.57
2022-09-23T04:12:32.082Z,5.55
2022-09-23T04:14:58.996Z,5.49
2022-09-23T04:17:26.290Z,5.43
2022-09-23T04:19:53.066Z,5.47
2022-09-23T04:22:20.036Z,5.41
2022-09-23T04:24:47.027Z,5.36
2022-09-23T04:27:13.992Z,5.38
2022-09-23T04:29:40.740Z,5.38
2022-09-23T04:32:07.579Z,5.41
2022-09-23T04:34:34.355Z,5.41
2022-09-23T04:37:01.227Z,5.42
2022-09-23T04:39:28.032Z,5.43
2022-09-23T04:41:56.792Z,5.44
2022-09-23T04:44:23.597Z,5.48
2022-09-23T04:46:50.446Z,5.51
2022-09-23T04:49:17.733Z,5.52
2022-09-23T04:51:45.182Z,5.54
2022-09-23T04:54:12.879Z,5.58
2022-09-23T04:56:39.980Z,5.62
2022-09-23T04:59:07.382Z,5.67
2022-09-23T05:01:35.162Z,5.71
2022-09-23T05:04:06.148Z,5.76
2022-09-23T05:06:35.094Z,5.84
2022-09-23T05:09:03.068Z,5.86
2022-09-23T05:11:34.164Z,5.93
2022-09-23T05:14:01.203Z,5.97
2022-09-23T05:16:28.045Z,5.97
2022-09-23T05:18:55.091Z,5.96
2022-09-23T05:21:24.668Z,5.96
2022-09-23T05:23:55.271Z,5.94
2022-09-23T05:26:25.588Z,6.02
2022-09-23T05:28:54.050Z,6.04
2022-09-23T05:31:26.659Z,6.09
2022-09-23T05:33:57.531Z,6.15
2022-09-23T05:36:25.581Z,6.22
2022-09-23T05:38:52.904Z,6.35
2022-09-23T05:41:23.277Z,6.46
2022-09-23T05:43:54.577Z,6.56
2022-09-23T05:46:28.093Z,6.66
2022-09-23T05:49:01.181Z,6.78
2022-09-23T05:51:31.147Z,6.91
2022-09-23T05:53:59.026Z,6.98
2022-09-23T05:56:27.880Z,7.11
2022-09-23T05:58:57.225Z,7.18
2022-09-23T06:01:25.358Z,7.26
2022-09-23T06:03:54.510Z,7.32
2022-09-23T06:06:27.999Z,7.41
2022-09-23T06:08:54.905Z,7.52
2022-09-23T06:11:21.840Z,7.51
2022-09-23T06:13:49.485Z,7.70
2022-09-23T06:16:16.767Z,7.85
2022-09-23T06:18:45.396Z,7.94
2022-09-23T06:21:14.755Z,8.02
2022-09-23T06:23:42.236Z,8.03
2022-09-23T06:26:11.695Z,7.91
2022-09-23T06:28:39.496Z,7.91
2022-09-23T06:31:14.103Z,7.82
2022-09-23T06:33:42.955Z,7.88
2022-09-23T06:36:10.917Z,7.89
2022-09-23T06:38:44.275Z,7.97
2022-09-23T06:41:12.499Z,7.97
2022-09-23T06:43:39.490Z,8.02
2022-09-23T06:46:08.256Z,8.11
2022-09-23T06:48:40.813Z,8.19
2022-09-23T06:51:19.125Z,8.20
2022-09-23T06:53:49.514Z,8.18
2022-09-23T06:56:18.032Z,8.22
2022-09-23T06:58:44.996Z,8.27
2022-09-23T07:01:22.078Z,8.31
2022-09-23T07:04:02.806Z,8.42
2022-09-23T07:06:32.487Z,8.49
2022-09-23T07:08:59.368Z,8.56
2022-09-23T07:11:27.097Z,8.61
2022-09-23T07:13:54.033Z,8.72
2022-09-23T07:16:21.457Z,8.79
2022-09-23T07:18:48.393Z,8.72
2022-09-23T07:21:18.386Z,8.81
2022-09-23T07:23:47.139Z,8.92
2022-09-23T07:26:15.479Z,9.02
2022-09-23T07:28:42.351Z,9.16
2022-09-23T07:31:12.553Z,9.20
2022-09-23T07:33:44.349Z,9.21
2022-09-23T07:36:15.178Z,9.24
2022-09-23T07:38:45.464Z,9.30
2022-09-23T07:41:16.137Z,9.51
2022-09-23T07:43:44.261Z,9.63
2022-09-23T07:46:17.808Z,9.58
2022-09-23T07:48:45.981Z,9.48
2022-09-23T07:51:19.155Z,9.42
2022-09-23T07:53:51.334Z,9.47
2022-09-23T07:56:19.553Z,9.61
2022-09-23T07:59:00.456Z,9.66
2022-09-23T08:01:35.808Z,9.78
2022-09-23T08:04:08.563Z,9.84
2022-09-23T08:06:36.011Z,9.94
2022-09-23T08:09:02.881Z,10.01
2022-09-23T08:11:29.820Z,10.08
2022-09-23T08:13:57.508Z,10.17
2022-09-23T08:16:24.417Z,10.23
2022-09-23T08:18:51.352Z,10.32
2022-09-23T08:21:22.281Z,10.27
2022-09-23T08:23:49.562Z,10.48
2022-09-23T08:26:21.550Z,10.73
2022-09-23T08:28:50.122Z,11.03
2022-09-23T08:31:17.111Z,11.09
2022-09-23T08:33:44.614Z,11.17
2022-09-23T08:36:11.445Z,11.35
2022-09-23T08:38:38.259Z,11.25
2022-09-23T08:41:20.636Z,11.01
2022-09-23T08:43:51.470Z,10.92
2022-09-23T08:46:24.437Z,11.07
2022-09-23T08:48:52.830Z,11.30
2022-09-23T08:51:29.578Z,11.59
2022-09-23T08:53:58.464Z,11.87
2022-09-23T08:56:25.360Z,12.21
2022-09-23T08:59:07.702Z,12.24
2022-09-23T09:01:40.697Z,12.07
2022-09-23T09:04:13.344Z,11.86
2022-09-23T09:06:53.000Z,11.91
2022-09-23T09:09:40.258Z,12.05
2022-09-23T09:12:24.363Z,12.29
2022-09-23T09:15:07.702Z,12.35
2022-09-23T09:17:59.398Z,12.18
2022-09-23T09:20:29.085Z,12.21
2022-09-23T09:23:00.755Z,12.43
2022-09-23T09:25:43.137Z,12.79
2022-09-23T09:28:21.788Z,13.18
2022-09-23T09:30:54.348Z,13.52
2022-09-23T09:33:28.308Z,13.58
2022-09-23T09:36:09.138Z,13.67
2022-09-23T09:38:37.111Z,13.67
2022-09-23T09:41:32.832Z,13.79
2022-09-23T09:44:03.665Z,13.88
2022-09-23T09:46:51.294Z,14.10
2022-09-23T09:49:47.071Z,14.31
2022-09-23T09:52:18.291Z,14.25
2022-09-23T09:54:45.068Z,14.34
2022-09-23T09:57:30.713Z,14.54
2022-09-23T10:00:26.563Z,14.63
2022-09-23T10:02:55.753Z,14.55
2022-09-23T10:05:27.126Z,14.47
2022-09-23T10:07:54.915Z,14.68
2022-09-23T10:10:33.707Z,14.86
2022-09-23T10:13:15.253Z,14.95
2022-09-23T10:15:45.315Z,14.89
2022-09-23T10:18:32.054Z,15.09
2022-09-23T10:21:09.758Z,15.01
2022-09-23T10:23:43.911Z,15.22
2022-09-23T10:26:12.629Z,15.45
2022-09-23T10:28:50.670Z,15.82
2022-09-23T10:31:29.173Z,16.16
2022-09-23T10:34:15.873Z,16.02
2022-09-23T10:36:44.672Z,15.49
2022-09-23T10:39:30.223Z,15.38
2022-09-23T10:42:25.428Z,15.45
2022-09-23T10:45:48.265Z,15.52
2022-09-23T10:48:50.403Z,15.78
2022-09-23T10:51:26.856Z,16.02
2022-09-23T10:54:35.296Z,16.26
2022-09-23T10:57:33.195Z,16.39
2022-09-23T11:00:11.257Z,16.37
2022-09-23T11:02:52.923Z,16.29
2022-09-23T11:05:26.596Z,16.32
2022-09-23T11:08:34.636Z,16.28
2022-09-23T11:11:23.224Z,16.04
2022-09-23T11:14:04.360Z,16.05
2022-09-23T11:16:49.735Z,16.13
2022-09-23T11:19:54.328Z,16.20
2022-09-23T11:22:24.115Z,16.29
2022-09-23T11:25:23.786Z,16.24
2022-09-23T11:28:30.285Z,16.20
2022-09-23T11:30:57.104Z,16.30
2022-09-23T11:33:42.201Z,16.42
2022-09-23T11:36:16.577Z,16.40
2022-09-23T11:38:48.911Z,16.40
2022-09-23T11:41:25.574Z,16.48
2022-09-23T11:44:21.613Z,16.39
2022-09-23T11:47:11.148Z,16.51
2022-09-23T11:49:49.792Z,16.64
2022-09-23T11:52:20.638Z,16.73
2022-09-23T11:55:22.582Z,16.67
2022-09-23T11:58:01.968Z,16.63
2022-09-23T12:00:34.493Z,16.80
2022-09-23T12:03:07.173Z,16.86
2022-09-23T12:05:41.948Z,16.76
2022-09-23T12:08:32.474Z,16.76
2022-09-23T12:11:31.829Z,16.47
2022-09-23T12:14:26.877Z,16.11
2022-09-23T12:16:56.612Z,15.79
2022-09-23T12:19:23.483Z,15.71
2022-09-23T12:22:05.440Z,15.70
2022-09-23T12:24:52.001Z,15.71
2022-09-23T12:27:28.731Z,15.70
2022-09-23T12:30:01.615Z,15.87
2022-09-23T12:32:29.127Z,15.96
2022-09-23T12:34:56.682Z,16.05
2022-09-23T12:37:36.559Z,16.38
2022-09-23T12:40:16.638Z,16.34
2022-09-23T12:42:46.524Z,16.33
2022-09-23T12:45:35.732Z,16.25
2022-09-23T12:48:05.373Z,15.70
2022-09-23T12:50:56.155Z,15.02
2022-09-23T12:53:35.037Z,14.72
2022-09-23T12:56:15.484Z,14.72
2022-09-23T12:58:42.433Z,14.50
2022-09-23T13:01:20.315Z,14.69
2022-09-23T13:04:10.086Z,14.94
2022-09-23T13:06:53.575Z,15.08
2022-09-23T13:09:25.071Z,15.14
2022-09-23T13:11:53.592Z,15.38
2022-09-23T13:14:27.376Z,15.58
2022-09-23T13:16:56.328Z,15.81
2022-09-23T13:19:25.931Z,16.16
2022-09-23T13:22:11.576Z,16.19
2022-09-23T13:24:45.173Z,16.35
2022-09-23T13:27:17.760Z,16.27
2022-09-23T13:29:55.348Z,16.17
2022-09-23T13:32:29.151Z,16.14
2022-09-23T13:35:16.664Z,16.16
2022-09-23T13:37:48.952Z,16.12
2022-09-23T13:40:21.252Z,16.36
2022-09-23T13:42:53.857Z,16.80
2022-09-23T13:45:24.409Z,16.88
2022-09-23T13:47:53.222Z,17.02
2022-09-23T13:50:23.130Z,17.17
2022-09-23T13:52:55.962Z,17.02
2022-09-23T13:55:28.055Z,16.98
2022-09-23T13:58:00.582Z,17.06
2022-09-23T14:00:27.738Z,17.01
2022-09-23T14:02:54.602Z,17.01
2022-09-23T14:05:27.334Z,17.27
2022-09-23T14:07:55.842Z,17.43
2022-09-23T14:10:24.959Z,17.69
2022-09-23T14:12:53.012Z,17.47
2022-09-23T14:15:21.164Z,17.06
2022-09-23T14:17:50.257Z,17.02
2022-09-23T14:20:20.768Z,17.25
2022-09-23T14:22:47.917Z,17.26
2022-09-23T14:25:17.041Z,16.93
2022-09-23T14:27:46.942Z,16.58
2022-09-23T14:30:20.704Z,16.30
2022-09-23T14:32:48.043Z,16.31
2022-09-23T14:35:23.541Z,16.26
2022-09-23T14:38:12.847Z,16.47
2022-09-23T14:41:15.843Z,16.95
2022-09-23T14:44:00.096Z,17.46
2022-09-23T14:46:29.854Z,17.77
2022-09-23T14:49:14.050Z,18.10
2022-09-23T14:51:57.818Z,18.25
2022-09-23T14:54:33.265Z,18.13
2022-09-23T14:57:18.485Z,18.17
2022-09-23T14:59:53.291Z,18.38
2022-09-23T15:02:42.484Z,18.59
2022-09-23T15:05:17.639Z,18.37
2022-09-23T15:07:48.852Z,18.12
2022-09-23T15:10:20.082Z,17.94
2022-09-23T15:12:50.582Z,17.63
2022-09-23T15:15:18.818Z,16.98
2022-09-23T15:17:46.849Z,16.64
2022-09-23T15:20:16.666Z,16.30
2022-09-23T15:22:49.723Z,16.05
2022-09-23T15:25:20.993Z,15.79
2022-09-23T15:28:03.487Z,15.44
2022-09-23T15:30:32.154Z,15.20
2022-09-23T15:32:59.971Z,15.03
2022-09-23T15:35:27.062Z,14.86
2022-09-23T15:37:58.344Z,14.60
2022-09-23T15:40:30.971Z,14.45
2022-09-23T15:42:59.963Z,14.35
2022-09-23T15:45:40.884Z,14.30
2022-09-23T15:48:13.403Z,14.18
2022-09-23T15:50:45.730Z,14.14
2022-09-23T15:53:16.125Z,13.99
2022-09-23T15:55:43.096Z,13.80
2022-09-23T15:58:09.948Z,13.80
2022-09-23T16:00:37.462Z,13.69
2022-09-23T16:03:05.330Z,13.63
2022-09-23T16:05:38.866Z,13.57
2022-09-23T16:08:09.222Z,13.49
2022-09-23T16:10:37.020Z,13.39
2022-09-23T16:13:06.776Z,13.34
2022-09-23T16:15:33.989Z,13.23
2022-09-23T16:18:00.974Z,13.13
2022-09-23T16:20:30.226Z,13.11
2022-09-23T16:22:58.915Z,13.01
2022-09-23T16:25:28.429Z,12.92
2022-09-23T16:27:56.491Z,12.84
2022-09-23T16:30:25.284Z,12.81
2022-09-23T16:32:52.337Z,12.76
2022-09-23T16:35:23.734Z,12.72
2022-09-23T16:37:51.653Z,12.66
2022-09-23T16:40:23.361Z,12.61
2022-09-23T16:42:52.551Z,12.46
2022-09-23T16:45:23.295Z,12.44
2022-09-23T16:47:52.039Z,12.36
2022-09-23T16:50:21.161Z,12.28
2022-09-23T16:52:48.641Z,12.26
2022-09-23T16:55:16.056Z,12.19
2022-09-23T16:57:43.145Z,12.09
2022-09-23T17:00:34.146Z,12.04
2022-09-23T17:03:19.958Z,11.97
2022-09-23T17:05:47.328Z,11.92
2022-09-23T17:08:16.095Z,11.84
2022-09-23T17:10:44.865Z,11.77
2022-09-23T17:13:15.759Z,11.69
2022-09-23T17:15:44.173Z,11.64
2022-09-23T17:18:11.031Z,11.67
2022-09-23T17:20:38.879Z,11.65
2022-09-23T17:23:06.162Z,11.60
2022-09-23T17:25:34.174Z,11.56
2022-09-23T17:28:01.250Z,11.50
2022-09-23T17:30:29.014Z,11.45
2022-09-23T17:32:55.871Z,11.41
2022-09-23T17:35:22.991Z,11.34
2022-09-23T17:37:50.173Z,11.34
2022-09-23T17:40:18.216Z,11.29
2022-09-23T17:42:45.121Z,11.19
2022-09-23T17:45:14.605Z,11.18
2022-09-23T17:47:42.323Z,11.03
2022-09-23T17:50:09.371Z,10.92
2022-09-23T17:52:36.188Z,10.84
2022-09-23T17:55:03.006Z,10.71
2022-09-23T17:57:29.817Z,10.57
2022-09-23T17:59:56.761Z,10.52
2022-09-23T18:02:23.764Z,10.46
2022-09-23T18:04:50.608Z,10.35
2022-09-23T18:07:17.433Z,10.25
2022-09-23T18:09:44.320Z,10.20
2022-09-23T18:12:11.206Z,10.24
2022-09-23T18:14:37.965Z,10.20
2022-09-23T18:17:04.773Z,10.12
2022-09-23T18:19:31.572Z,10.11
2022-09-23T18:21:58.482Z,9.97
2022-09-23T18:24:32.185Z,9.93
2022-09-23T18:27:00.235Z,9.95
2022-09-23T18:29:27.644Z,9.97
2022-09-23T18:31:54.544Z,9.93
2022-09-23T18:34:22.086Z,9.88
2022-09-23T18:36:48.986Z,9.89
2022-09-23T18:39:16.053Z,9.82
2022-09-23T18:41:43.183Z,9.79
2022-09-23T18:44:10.129Z,9.72
2022-09-23T18:46:37.081Z,9.69
2022-09-23T18:49:22.960Z,9.64
2022-09-23T18:51:57.667Z,9.64
2022-09-23T18:54:27.431Z,9.62
2022-09-23T18:56:55.188Z,9.58
2022-09-23T18:59:26.141Z,9.57
2022-09-23T19:01:56.701Z,9.53
2022-09-23T19:04:25.492Z,9.51
2022-09-23T19:06:54.109Z,9.48
2022-09-23T19:09:20.977Z,9.42
2022-09-23T19:11:52.275Z,9.40
2022-09-23T19:14:19.914Z,9.32
2022-09-23T19:16:49.210Z,9.28
2022-09-23T19:19:16.273Z,9.26
2022-09-23T19:21:43.378Z,9.15
2022-09-23T19:24:14.522Z,9.14
2022-09-23T19:26:42.259Z,9.11
2022-09-23T19:29:14.450Z,9.04
2022-09-23T19:31:42.191Z,9.00
2022-09-23T19:34:18.094Z,8.96
2022-09-23T19:36:47.293Z,8.87
2022-09-23T19:39:32.260Z,8.81
2022-09-23T19:41:59.401Z,8.75
2022-09-23T19:44:26.960Z,8.73
2022-09-23T19:46:56.877Z,8.66
2022-09-23T19:49:25.575Z,8.65
2022-09-23T19:51:55.949Z,8.67
2022-09-23T19:54:23.565Z,8.67
2022-09-23T19:56:50.689Z,8.66
2022-09-23T19:59:19.033Z,8.70
2022-09-23T20:01:48.227Z,8.73
2022-09-23T20:04:16.394Z,8.72
2022-09-23T20:06:43.859Z,8.67
2022-09-23T20:09:10.740Z,8.62
2022-09-23T20:11:38.205Z,8.61
2022-09-23T20:14:06.418Z,8.57
2022-09-23T20:16:35.934Z,8.56
2022-09-23T20:19:04.497Z,8.58
2022-09-23T20:21:33.740Z,8.54
2022-09-23T20:24:01.302Z,8.58
2022-09-23T20:26:46.942Z,8.55
2022-09-23T20:29:14.373Z,8.51
2022-09-23T20:31:41.747Z,8.50
2022-09-23T20:34:10.573Z,8.47
2022-09-23T20:36:39.636Z,8.45
2022-09-23T20:39:06.800Z,8.45
2022-09-23T20:41:37.854Z,8.40
2022-09-23T20:44:08.144Z,8.41
2022-09-23T20:46:36.044Z,8.36
2022-09-23T20:49:03.934Z,8.37
2022-09-23T20:51:33.509Z,8.31
2022-09-23T20:54:00.818Z,8.31
2022-09-23T20:56:28.760Z,8.32
2022-09-23T20:59:09.452Z,8.32
2022-09-23T21:01:37.117Z,8.26
2022-09-23T21:04:06.083Z,8.28
2022-09-23T21:06:35.119Z,8.25
2022-09-23T21:09:02.739Z,8.24
2022-09-23T21:11:30.073Z,8.21
2022-09-23T21:13:56.915Z,8.15
2022-09-23T21:16:24.617Z,8.14
2022-09-23T21:18:52.436Z,8.09
2022-09-23T21:21:22.286Z,8.05
2022-09-23T21:23:50.336Z,7.97
2022-09-23T21:26:24.815Z,7.88
2022-09-23T21:28:54.818Z,7.90
2022-09-23T21:31:25.887Z,7.83
2022-09-23T21:33:59.208Z,7.79
2022-09-23T21:36:28.274Z,7.78
2022-09-23T21:38:58.276Z,7.69
2022-09-23T21:41:25.462Z,7.65
2022-09-23T21:43:52.341Z,7.58
2022-09-23T21:46:21.023Z,7.56
2022-09-23T21:48:50.359Z,7.50
2022-09-23T21:51:19.368Z,7.45
2022-09-23T21:53:47.096Z,7.41
2022-09-23T21:56:41.038Z,7.40
2022-09-23T21:59:08.265Z,7.36
2022-09-23T22:01:41.607Z,7.30
2022-09-23T22:04:15.199Z,7.26
2022-09-23T22:06:42.293Z,7.15
2022-09-23T22:09:12.815Z,7.16
2022-09-23T22:11:59.637Z,7.09
2022-09-23T22:14:26.739Z,6.98
2022-09-23T22:16:57.936Z,6.95
2022-09-23T22:19:27.101Z,6.83
2022-09-23T22:21:56.266Z,6.80
2022-09-23T22:24:23.440Z,6.75
2022-09-23T22:26:50.615Z,6.71
2022-09-23T22:29:36.469Z,6.69
2022-09-23T22:32:23.639Z,6.63
2022-09-23T22:34:52.162Z,6.65
2022-09-23T22:37:28.653Z,6.63
2022-09-23T22:39:55.523Z,6.60
2022-09-23T22:42:22.707Z,6.59
2022-09-23T22:44:50.311Z,6.55
2022-09-23T22:47:20.410Z,6.55
2022-09-23T22:49:48.295Z,6.55
2022-09-23T22:52:16.301Z,6.48
2022-09-23T22:54:43.446Z,6.42
2022-09-23T22:57:10.636Z,6.41
2022-09-23T22:59:37.797Z,6.38
2022-09-23T23:02:06.772Z,6.36
2022-09-23T23:04:34.009Z,6.33
2022-09-23T23:07:00.871Z,6.30
2022-09-23T23:09:27.697Z,6.23
2022-09-23T23:11:54.876Z,6.20
2022-09-23T23:14:21.853Z,6.08
2022-09-23T23:16:48.745Z,6.09
2022-09-23T23:19:17.633Z,6.05
2022-09-23T23:21:45.593Z,6.10
2022-09-23T23:24:17.891Z,5.92
2022-09-23T23:26:45.335Z,6.01
2022-09-23T23:29:14.291Z,6.01
2022-09-23T23:31:41.597Z,5.90
2022-09-23T23:34:12.376Z,5.93
2022-09-23T23:36:40.034Z,5.87
2022-09-23T23:39:07.185Z,5.85
2022-09-23T23:41:34.037Z,5.79
2022-09-23T23:44:01.472Z,5.77
2022-09-23T23:46:30.849Z,5.74
2022-09-23T23:48:58.295Z,5.71
2022-09-23T23:51:29.128Z,5.72
2022-09-23T23:53:56.722Z,5.65
2022-09-23T23:56:25.049Z,5.64
2022-09-23T23:58:56.772Z,5.62
